createdAt,value
2018-01-19T20:02:53.375Z,23.3
2018-01-19T20:03:53.039Z,22.7
2018-01-19T20:04:52.888Z,25.5
2018-01-19T20:05:52.891Z,27.9
2018-01-19T20:06:53.063Z,29.6
2018-01-19T20:07:52.605Z,30.6
2018-01-19T20:08:52.537Z,30.9
2018-01-19T20:09:52.798Z,31.4
2018-01-19T20:10:52.754Z,31.8
2018-01-19T20:11:52.721Z,32.3
2018-01-19T20:12:52.590Z,32.4
2018-01-19T20:13:52.285Z,27.9
2018-01-19T20:14:52.126Z,26.3
2018-01-19T20:15:52.344Z,25.9
2018-01-19T20:16:52.487Z,28.3
2018-01-19T20:17:51.846Z,28.6
2018-01-19T20:18:51.754Z,24.3
2018-01-19T20:19:51.873Z,22.9
2018-01-19T20:20:51.688Z,23.4
2018-01-19T20:21:51.621Z,26.7
2018-01-19T20:22:51.566Z,28.3
2018-01-19T20:23:51.251Z,29.8
2018-01-19T20:24:52.162Z,30.8
2018-01-19T20:25:51.416Z,31.4
2018-01-19T20:26:51.547Z,31.8
2018-01-19T20:27:51.265Z,32.1
2018-01-19T20:28:51.180Z,32.5
2018-01-19T20:29:50.931Z,32.2
2018-01-19T20:30:51.311Z,27.7
2018-01-19T20:31:50.840Z,26.1
2018-01-19T20:32:51.046Z,25.9
2018-01-19T20:33:50.777Z,28.4
2018-01-19T20:34:50.497Z,28.4
2018-01-19T20:35:50.528Z,24.2
2018-01-19T20:36:50.557Z,22.9
2018-01-19T20:37:50.254Z,23.6
2018-01-19T20:38:50.439Z,26.8
2018-01-19T20:39:50.517Z,28.3
2018-01-19T20:40:50.126Z,29.8
2018-01-19T20:41:50.143Z,30.8
2018-01-19T20:42:50.156Z,31.4
2018-01-19T20:43:50.322Z,31.8
2018-01-19T20:44:49.812Z,32.3
2018-01-19T20:45:50.302Z,32.8
2018-01-19T20:46:49.547Z,31.3
2018-01-19T20:47:49.891Z,27.6
2018-01-19T20:48:49.681Z,26.4
2018-01-19T20:49:49.822Z,26.7
2018-01-19T20:50:49.409Z,28.3
2018-01-19T20:51:49.371Z,26.1
2018-01-19T20:52:49.128Z,22.9
2018-01-19T20:53:49.651Z,22.3
2018-01-19T20:54:49.226Z,24.4
2018-01-19T20:55:49.323Z,27.1
2018-01-19T20:56:49.139Z,24.8
2018-01-19T20:57:48.990Z,22.3
2018-01-19T20:58:48.807Z,21.7
2018-01-19T20:59:48.665Z,24.4
2018-01-19T21:00:48.368Z,26.6
2018-01-19T21:01:48.495Z,28.3
2018-01-19T21:02:48.623Z,29.7
2018-01-19T21:03:48.395Z,30.7
2018-01-19T21:04:48.741Z,31.2
2018-01-19T21:05:47.977Z,31.5
2018-01-19T21:06:48.528Z,31.9
2018-01-19T21:07:48.469Z,32.5
2018-01-19T21:08:48.079Z,33.3
2018-01-19T21:09:47.836Z,33.9
2018-01-19T21:10:47.922Z,29.5
2018-01-19T21:11:47.791Z,27.6
2018-01-19T21:12:47.812Z,26.9
2018-01-19T21:13:47.549Z,28.6
2018-01-19T21:14:47.740Z,29.1
2018-01-19T21:15:47.832Z,24.6
2018-01-19T21:16:47.502Z,23.1
2018-01-19T21:17:48.095Z,23.3
2018-01-19T21:18:47.272Z,26.8
2018-01-19T21:19:47.528Z,28.5
2018-01-19T21:20:47.580Z,30.1
2018-01-19T21:21:47.169Z,31.4
2018-01-19T21:22:47.028Z,32.4
2018-01-19T21:23:47.173Z,33.2
2018-01-19T21:24:46.889Z,33.6
2018-01-19T21:25:46.764Z,29.2
2018-01-19T21:26:47.192Z,27.5
2018-01-19T21:27:47.224Z,26.9
2018-01-19T21:28:46.758Z,28.6
2018-01-19T21:29:46.981Z,28.9
2018-01-19T21:30:46.639Z,24.5
2018-01-19T21:31:46.691Z,23.3
2018-01-19T21:32:46.495Z,23.6
2018-01-19T21:33:46.134Z,27.1
2018-01-19T21:34:46.720Z,28.8
2018-01-19T21:35:45.876Z,30.4
2018-01-19T21:36:46.900Z,31.6
2018-01-19T21:37:45.991Z,32.6
2018-01-19T21:38:45.882Z,33.4
2018-01-19T21:39:46.097Z,33.6
2018-01-19T21:40:46.327Z,29.3
2018-01-19T21:41:45.824Z,27.7
2018-01-19T21:42:45.909Z,27.3
2018-01-19T21:43:45.698Z,29.4
2018-01-19T21:44:45.430Z,29.4
2018-01-19T21:45:45.542Z,25.2
2018-01-19T21:46:45.435Z,24
2018-01-19T21:47:45.558Z,24.6
2018-01-19T21:48:45.161Z,27.6
2018-01-19T21:49:45.260Z,29.3
2018-01-19T21:50:44.747Z,30.8
2018-01-19T21:51:44.868Z,31.8
2018-01-19T21:52:45.652Z,32.6
2018-01-19T21:53:44.921Z,33.3
2018-01-19T21:54:44.463Z,30.4
2018-01-19T21:55:44.904Z,27.6
2018-01-19T21:56:44.894Z,26.8
2018-01-19T21:57:44.482Z,28.1
2018-01-19T21:58:44.452Z,29.8
2018-01-19T21:59:44.612Z,26.3
2018-01-19T22:00:44.197Z,24
2018-01-19T22:01:44.343Z,23.4
2018-01-19T22:02:44.358Z,26.3
2018-01-19T22:03:44.460Z,28.3
2018-01-19T22:04:43.805Z,29.8
2018-01-19T22:05:43.824Z,30.7
2018-01-19T22:06:44.042Z,31.3
2018-01-19T22:07:44.039Z,31.7
2018-01-19T22:08:43.664Z,32.1
2018-01-19T22:09:43.599Z,32.6
2018-01-19T22:10:43.597Z,33.4
2018-01-19T22:11:43.639Z,34.2
2018-01-19T22:12:43.237Z,34.8
2018-01-19T22:13:43.206Z,30.6
2018-01-19T22:14:43.180Z,28.3
2018-01-19T22:15:43.027Z,27.6
2018-01-19T22:16:42.856Z,29.1
2018-01-19T22:17:42.955Z,30.1
2018-01-19T22:18:42.986Z,25.9
2018-01-19T22:19:43.040Z,24.1
2018-01-19T22:20:42.509Z,23.8
2018-01-19T22:21:42.598Z,27.1
2018-01-19T22:22:42.757Z,29.1
2018-01-19T22:23:42.322Z,30.6
2018-01-19T22:24:42.499Z,31.6
2018-01-19T22:25:42.950Z,32.4
2018-01-19T22:26:42.358Z,33.1
2018-01-19T22:27:42.487Z,33.9
2018-01-19T22:28:42.534Z,34.5
2018-01-19T22:29:42.206Z,34.9
2018-01-19T22:30:41.775Z,30.7
2018-01-19T22:31:41.954Z,28.4
2018-01-19T22:32:41.883Z,27.6
2018-01-19T22:33:41.713Z,28.8
2018-01-19T22:34:41.629Z,29.8
2018-01-19T22:35:41.658Z,25.8
2018-01-19T22:36:42.246Z,24
2018-01-19T22:37:41.309Z,23.7
2018-01-19T22:38:41.138Z,27
2018-01-19T22:39:41.355Z,29.1
2018-01-19T22:40:41.183Z,30.6
2018-01-19T22:41:41.084Z,31.6
2018-01-19T22:42:41.095Z,32.3
2018-01-19T22:43:41.069Z,33.1
2018-01-19T22:44:41.578Z,33.9
2018-01-19T22:45:40.699Z,34.6
2018-01-19T22:46:40.940Z,35.1
2018-01-19T22:47:40.699Z,35.3
2018-01-19T22:48:40.639Z,35.5
2018-01-19T22:49:40.489Z,34
2018-01-19T22:50:40.790Z,29.8
2018-01-19T22:51:40.462Z,28.5
2018-01-19T22:52:40.332Z,28.3
2018-01-19T22:53:40.233Z,29.8
2018-01-19T22:54:40.055Z,28.2
2018-01-19T22:55:40.172Z,24.6
2018-01-19T22:56:39.929Z,23.8
2018-01-19T22:57:39.935Z,25.4
2018-01-19T22:58:39.928Z,28.3
2018-01-19T22:59:39.874Z,29.9
2018-01-19T23:00:39.478Z,31.3
2018-01-19T23:01:39.493Z,32.2
2018-01-19T23:02:39.451Z,32.9
2018-01-19T23:03:39.554Z,33.8
2018-01-19T23:04:39.271Z,34.4
2018-01-19T23:05:39.674Z,34.9
2018-01-19T23:06:39.240Z,35.2
2018-01-19T23:07:39.044Z,31.7
2018-01-19T23:08:39.356Z,28.9
2018-01-19T23:09:38.957Z,28.1
2018-01-19T23:10:39.035Z,28.7
2018-01-19T23:11:38.800Z,29.9
2018-01-19T23:12:38.749Z,26.1
2018-01-19T23:13:38.867Z,23.9
2018-01-19T23:14:38.397Z,23.5
2018-01-19T23:15:38.616Z,26.6
2018-01-19T23:16:38.362Z,28.9
2018-01-19T23:17:38.613Z,30.6
2018-01-19T23:18:38.392Z,31.6
2018-01-19T23:19:37.807Z,32.3
2018-01-19T23:20:38.043Z,33.1
2018-01-19T23:21:38.163Z,33.9
2018-01-19T23:22:37.953Z,34.6
2018-01-19T23:23:37.949Z,34.9
2018-01-19T23:24:37.745Z,35.3
2018-01-19T23:25:37.894Z,34.6
2018-01-19T23:26:37.677Z,30.1
2018-01-19T23:27:37.303Z,28.6
2018-01-19T23:28:37.283Z,28.1
2018-01-19T23:29:37.221Z,29.6
2018-01-19T23:30:37.552Z,28.9
2018-01-19T23:31:36.869Z,24.8
2018-01-19T23:32:37.114Z,23.8
2018-01-19T23:33:36.933Z,25
2018-01-19T23:34:36.703Z,28.1
2018-01-19T23:35:37.148Z,29.9
2018-01-19T23:36:37.095Z,31.1
2018-01-19T23:37:36.512Z,31.9
2018-01-19T23:38:36.509Z,32.6
2018-01-19T23:39:36.450Z,33.7
2018-01-19T23:40:36.422Z,34.6
2018-01-19T23:41:36.677Z,35.3
2018-01-19T23:42:36.297Z,35.8
2018-01-19T23:43:36.435Z,33.1
2018-01-19T23:44:36.059Z,29.8
2018-01-19T23:45:36.462Z,28.7
2018-01-19T23:46:35.904Z,29.1
2018-01-19T23:47:35.703Z,30.6
2018-01-19T23:48:35.879Z,27.6
2018-01-19T23:49:35.560Z,24.7
2018-01-19T23:50:35.597Z,24.1
2018-01-19T23:51:35.894Z,26.4
2018-01-19T23:52:35.508Z,28.9
2018-01-19T23:53:35.448Z,30.4
2018-01-19T23:54:35.449Z,31.5
2018-01-19T23:55:35.371Z,32.2
2018-01-19T23:56:35.277Z,32.9
2018-01-19T23:57:34.855Z,33.8
2018-01-19T23:58:35.045Z,34.6
2018-01-19T23:59:34.981Z,35.3
